sensor_id;sensor_type;location;lat;lon;timestamp;temperature;humidity
65559;DHT22;52203;51.998;5.140;2023-01-23T00:01:36;4.98;118.99
65559;DHT22;52203;51.998;5.140;2023-01-23T00:04:03;4.98;118.99
65559;DHT22;52203;51.998;5.140;2023-01-23T00:06:29;4.98;118.99
65559;DHT22;52203;51.998;5.140;2023-01-23T00:08:55;4.97;118.99
65559;DHT22;52203;51.998;5.140;2023-01-23T00:11:23;4.95;118.99
65559;DHT22;52203;51.998;5.140;2023-01-23T00:13:50;4.96;118.99
65559;DHT22;52203;51.998;5.140;2023-01-23T00:16:19;4.96;118.99
65559;DHT22;52203;51.998;5.140;2023-01-23T00:18:45;4.97;118.99
65559;DHT22;52203;51.998;5.140;2023-01-23T00:21:14;4.97;118.99
65559;DHT22;52203;51.998;5.140;2023-01-23T00:23:44;4.98;118.99
65559;DHT22;52203;51.998;5.140;2023-01-23T00:26:13;4.98;118.99
65559;DHT22;52203;51.998;5.140;2023-01-23T00:28:41;4.98;118.99
65559;DHT22;52203;51.998;5.140;2023-01-23T00:31:20;4.97;118.99
65559;DHT22;52203;51.998;5.140;2023-01-23T00:33:46;4.97;118.99
65559;DHT22;52203;51.998;5.140;2023-01-23T00:36:14;4.96;118.99
65559;DHT22;52203;51.998;5.140;2023-01-23T00:38:40;4.97;118.99
65559;DHT22;52203;51.998;5.140;2023-01-23T00:41:06;4.97;118.99
65559;DHT22;52203;51.998;5.140;2023-01-23T00:43:32;4.98;118.99
65559;DHT22;52203;51.998;5.140;2023-01-23T00:45:57;4.97;118.99
65559;DHT22;52203;51.998;5.140;2023-01-23T00:48:23;4.98;118.99
65559;DHT22;52203;51.998;5.140;2023-01-23T00:50:50;4.97;118.99
65559;DHT22;52203;51.998;5.140;2023-01-23T00:53:15;4.97;118.99
65559;DHT22;52203;51.998;5.140;2023-01-23T00:55:41;5.00;118.99
65559;DHT22;52203;51.998;5.140;2023-01-23T00:58:07;4.98;118.99
65559;DHT22;52203;51.998;5.140;2023-01-23T01:00:34;4.97;118.99
65559;DHT22;52203;51.998;5.140;2023-01-23T01:03:00;4.98;118.99
65559;DHT22;52203;51.998;5.140;2023-01-23T01:05:26;4.98;118.99
65559;DHT22;52203;51.998;5.140;2023-01-23T01:07:51;4.95;118.99
65559;DHT22;52203;51.998;5.140;2023-01-23T01:10:17;4.96;118.99
65559;DHT22;52203;51.998;5.140;2023-01-23T01:12:43;4.98;118.99
65559;DHT22;52203;51.998;5.140;2023-01-23T01:15:09;4.96;118.99
65559;DHT22;52203;51.998;5.140;2023-01-23T01:17:35;4.97;118.99
65559;DHT22;52203;51.998;5.140;2023-01-23T01:20:03;5.00;118.99
65559;DHT22;52203;51.998;5.140;2023-01-23T01:22:30;4.98;118.99
65559;DHT22;52203;51.998;5.140;2023-01-23T01:24:56;5.00;118.99
65559;DHT22;52203;51.998;5.140;2023-01-23T01:27:22;4.97;118.99
65559;DHT22;52203;51.998;5.140;2023-01-23T01:29:47;4.96;118.99
65559;DHT22;52203;51.998;5.140;2023-01-23T01:32:13;4.96;118.99
65559;DHT22;52203;51.998;5.140;2023-01-23T01:34:39;4.96;118.99
65559;DHT22;52203;51.998;5.140;2023-01-23T01:37:04;4.93;118.99
65559;DHT22;52203;51.998;5.140;2023-01-23T01:39:30;4.96;118.99
65559;DHT22;52203;51.998;5.140;2023-01-23T01:41:56;4.95;118.99
65559;DHT22;52203;51.998;5.140;2023-01-23T01:44:23;4.98;118.99
65559;DHT22;52203;51.998;5.140;2023-01-23T01:46:49;4.93;118.99
65559;DHT22;52203;51.998;5.140;2023-01-23T01:49:30;4.94;118.99
65559;DHT22;52203;51.998;5.140;2023-01-23T01:52:09;4.96;118.99
65559;DHT22;52203;51.998;5.140;2023-01-23T01:54:57;4.93;118.99
65559;DHT22;52203;51.998;5.140;2023-01-23T01:57:27;4.94;118.99
65559;DHT22;52203;51.998;5.140;2023-01-23T02:00:06;4.93;118.99
65559;DHT22;52203;51.998;5.140;2023-01-23T02:02:45;4.94;118.99
65559;DHT22;52203;51.998;5.140;2023-01-23T02:05:16;4.94;118.99
65559;DHT22;52203;51.998;5.140;2023-01-23T02:10:29;4.94;118.99
65559;DHT22;52203;51.998;5.140;2023-01-23T02:13:20;4.94;118.99
65559;DHT22;52203;51.998;5.140;2023-01-23T02:15:46;4.92;118.99
65559;DHT22;52203;51.998;5.140;2023-01-23T02:18:12;4.93;118.99
65559;DHT22;52203;51.998;5.140;2023-01-23T02:20:38;4.93;118.99
65559;DHT22;52203;51.998;5.140;2023-01-23T02:28:11;4.94;118.99
65559;DHT22;52203;51.998;5.140;2023-01-23T02:30:38;4.94;118.99
65559;DHT22;52203;51.998;5.140;2023-01-23T02:35:45;4.96;118.99
65559;DHT22;52203;51.998;5.140;2023-01-23T02:38:11;4.94;118.99
65559;DHT22;52203;51.998;5.140;2023-01-23T02:40:39;4.94;118.99
65559;DHT22;52203;51.998;5.140;2023-01-23T02:43:08;4.94;118.99
65559;DHT22;52203;51.998;5.140;2023-01-23T02:45:35;4.95;118.99
65559;DHT22;52203;51.998;5.140;2023-01-23T02:48:01;4.95;118.99
65559;DHT22;52203;51.998;5.140;2023-01-23T02:50:30;4.93;118.99
65559;DHT22;52203;51.998;5.140;2023-01-23T02:52:56;4.96;118.99
65559;DHT22;52203;51.998;5.140;2023-01-23T02:55:23;4.93;118.99
65559;DHT22;52203;51.998;5.140;2023-01-23T02:57:51;4.93;118.99
65559;DHT22;52203;51.998;5.140;2023-01-23T03:00:17;4.94;118.99
65559;DHT22;52203;51.998;5.140;2023-01-23T03:02:49;4.93;118.99
65559;DHT22;52203;51.998;5.140;2023-01-23T03:05:16;4.93;118.99
65559;DHT22;52203;51.998;5.140;2023-01-23T03:07:41;4.93;118.99
65559;DHT22;52203;51.998;5.140;2023-01-23T03:10:11;4.96;118.99
65559;DHT22;52203;51.998;5.140;2023-01-23T03:12:37;4.93;118.99
65559;DHT22;52203;51.998;5.140;2023-01-23T03:15:08;4.92;118.99
65559;DHT22;52203;51.998;5.140;2023-01-23T03:17:34;4.93;118.99
65559;DHT22;52203;51.998;5.140;2023-01-23T03:20:00;4.93;118.99
65559;DHT22;52203;51.998;5.140;2023-01-23T03:22:27;4.91;118.99
65559;DHT22;52203;51.998;5.140;2023-01-23T03:24:53;4.93;118.99
65559;DHT22;52203;51.998;5.140;2023-01-23T03:27:18;4.92;118.99
65559;DHT22;52203;51.998;5.140;2023-01-23T03:29:44;4.91;118.99
65559;DHT22;52203;51.998;5.140;2023-01-23T03:32:28;4.92;118.99
65559;DHT22;52203;51.998;5.140;2023-01-23T03:34:55;4.92;118.99
65559;DHT22;52203;51.998;5.140;2023-01-23T03:37:21;4.90;118.99
65559;DHT22;52203;51.998;5.140;2023-01-23T03:39:47;4.86;118.99
65559;DHT22;52203;51.998;5.140;2023-01-23T03:42:34;4.89;118.99
65559;DHT22;52203;51.998;5.140;2023-01-23T03:45:00;4.88;118.99
65559;DHT22;52203;51.998;5.140;2023-01-23T03:47:26;4.91;118.99
65559;DHT22;52203;51.998;5.140;2023-01-23T03:49:52;4.89;118.99
65559;DHT22;52203;51.998;5.140;2023-01-23T03:52:18;4.88;118.99
65559;DHT22;52203;51.998;5.140;2023-01-23T03:54:43;4.88;118.99
65559;DHT22;52203;51.998;5.140;2023-01-23T03:57:09;4.90;118.99
65559;DHT22;52203;51.998;5.140;2023-01-23T03:59:35;4.89;118.99
65559;DHT22;52203;51.998;5.140;2023-01-23T04:02:01;4.88;118.99
65559;DHT22;52203;51.998;5.140;2023-01-23T04:04:30;4.86;118.99
65559;DHT22;52203;51.998;5.140;2023-01-23T04:06:56;4.89;118.99
65559;DHT22;52203;51.998;5.140;2023-01-23T04:09:21;4.86;118.99
65559;DHT22;52203;51.998;5.140;2023-01-23T04:11:56;4.88;118.99
65559;DHT22;52203;51.998;5.140;2023-01-23T04:14:23;4.88;118.99
65559;DHT22;52203;51.998;5.140;2023-01-23T04:16:49;4.89;118.99
65559;DHT22;52203;51.998;5.140;2023-01-23T04:19:14;4.88;118.99
65559;DHT22;52203;51.998;5.140;2023-01-23T04:21:44;4.87;118.99
65559;DHT22;52203;51.998;5.140;2023-01-23T04:24:10;4.87;118.99
65559;DHT22;52203;51.998;5.140;2023-01-23T04:26:36;4.87;118.99
65559;DHT22;52203;51.998;5.140;2023-01-23T04:29:03;4.87;118.99
65559;DHT22;52203;51.998;5.140;2023-01-23T04:31:28;4.87;118.99
65559;DHT22;52203;51.998;5.140;2023-01-23T04:33:54;4.87;118.99
65559;DHT22;52203;51.998;5.140;2023-01-23T04:36:19;4.86;118.99
65559;DHT22;52203;51.998;5.140;2023-01-23T04:38:45;4.87;118.99
65559;DHT22;52203;51.998;5.140;2023-01-23T04:41:19;4.89;118.99
65559;DHT22;52203;51.998;5.140;2023-01-23T04:43:45;4.83;118.99
65559;DHT22;52203;51.998;5.140;2023-01-23T04:46:11;4.86;118.99
65559;DHT22;52203;51.998;5.140;2023-01-23T04:48:36;4.84;118.99
65559;DHT22;52203;51.998;5.140;2023-01-23T04:51:02;4.84;118.99
65559;DHT22;52203;51.998;5.140;2023-01-23T04:53:28;4.84;118.99
65559;DHT22;52203;51.998;5.140;2023-01-23T04:55:53;4.86;118.99
65559;DHT22;52203;51.998;5.140;2023-01-23T04:58:19;4.86;118.99
65559;DHT22;52203;51.998;5.140;2023-01-23T05:00:45;4.83;118.99
65559;DHT22;52203;51.998;5.140;2023-01-23T05:03:10;4.83;118.99
65559;DHT22;52203;51.998;5.140;2023-01-23T05:05:36;4.87;118.99
65559;DHT22;52203;51.998;5.140;2023-01-23T05:08:01;4.84;118.99
65559;DHT22;52203;51.998;5.140;2023-01-23T05:10:27;4.86;118.99
65559;DHT22;52203;51.998;5.140;2023-01-23T05:12:53;4.83;118.99
65559;DHT22;52203;51.998;5.140;2023-01-23T05:15:18;4.86;118.99
65559;DHT22;52203;51.998;5.140;2023-01-23T05:17:46;4.83;118.99
65559;DHT22;52203;51.998;5.140;2023-01-23T05:20:11;4.84;118.99
65559;DHT22;52203;51.998;5.140;2023-01-23T05:22:38;4.86;118.99
65559;DHT22;52203;51.998;5.140;2023-01-23T05:25:04;4.86;118.99
65559;DHT22;52203;51.998;5.140;2023-01-23T05:27:30;4.84;118.99
65559;DHT22;52203;51.998;5.140;2023-01-23T05:29:55;4.83;118.99
65559;DHT22;52203;51.998;5.140;2023-01-23T05:32:21;4.84;118.99
65559;DHT22;52203;51.998;5.140;2023-01-23T05:34:46;4.84;118.99
65559;DHT22;52203;51.998;5.140;2023-01-23T05:37:12;4.84;118.99
65559;DHT22;52203;51.998;5.140;2023-01-23T05:39:37;4.81;118.99
65559;DHT22;52203;51.998;5.140;2023-01-23T05:42:03;4.83;118.99
65559;DHT22;52203;51.998;5.140;2023-01-23T05:44:29;4.84;118.99
65559;DHT22;52203;51.998;5.140;2023-01-23T05:46:54;4.84;118.99
65559;DHT22;52203;51.998;5.140;2023-01-23T05:49:20;4.84;118.99
65559;DHT22;52203;51.998;5.140;2023-01-23T05:51:45;4.84;118.99
65559;DHT22;52203;51.998;5.140;2023-01-23T05:54:11;4.83;118.99
65559;DHT22;52203;51.998;5.140;2023-01-23T05:56:37;4.82;118.99
65559;DHT22;52203;51.998;5.140;2023-01-23T05:59:02;4.82;118.99
65559;DHT22;52203;51.998;5.140;2023-01-23T06:01:29;4.80;118.99
65559;DHT22;52203;51.998;5.140;2023-01-23T06:03:55;4.81;118.99
65559;DHT22;52203;51.998;5.140;2023-01-23T06:06:20;4.82;118.99
65559;DHT22;52203;51.998;5.140;2023-01-23T06:08:46;4.76;118.99
65559;DHT22;52203;51.998;5.140;2023-01-23T06:11:11;4.75;118.99
65559;DHT22;52203;51.998;5.140;2023-01-23T06:13:37;4.78;118.99
65559;DHT22;52203;51.998;5.140;2023-01-23T06:16:03;4.82;118.99
65559;DHT22;52203;51.998;5.140;2023-01-23T06:18:28;4.89;118.99
65559;DHT22;52203;51.998;5.140;2023-01-23T06:21:00;4.97;118.99
65559;DHT22;52203;51.998;5.140;2023-01-23T06:23:26;5.02;118.99
65559;DHT22;52203;51.998;5.140;2023-01-23T06:25:52;5.12;118.99
65559;DHT22;52203;51.998;5.140;2023-01-23T06:28:18;5.21;118.99
65559;DHT22;52203;51.998;5.140;2023-01-23T06:30:44;5.33;118.99
65559;DHT22;52203;51.998;5.140;2023-01-23T06:33:09;5.41;118.99
65559;DHT22;52203;51.998;5.140;2023-01-23T06:35:35;5.45;118.99
65559;DHT22;52203;51.998;5.140;2023-01-23T06:38:01;5.49;118.99
65559;DHT22;52203;51.998;5.140;2023-01-23T06:40:26;5.49;118.99
65559;DHT22;52203;51.998;5.140;2023-01-23T06:42:54;5.53;118.99
65559;DHT22;52203;51.998;5.140;2023-01-23T06:45:21;5.66;118.99
65559;DHT22;52203;51.998;5.140;2023-01-23T06:47:46;5.63;118.99
65559;DHT22;52203;51.998;5.140;2023-01-23T06:50:12;5.67;118.99
65559;DHT22;52203;51.998;5.140;2023-01-23T06:52:37;5.67;118.99
65559;DHT22;52203;51.998;5.140;2023-01-23T06:55:03;5.70;118.99
65559;DHT22;52203;51.998;5.140;2023-01-23T06:57:29;5.75;118.99
65559;DHT22;52203;51.998;5.140;2023-01-23T06:59:54;5.76;118.99
65559;DHT22;52203;51.998;5.140;2023-01-23T07:02:20;5.83;118.99
65559;DHT22;52203;51.998;5.140;2023-01-23T07:04:45;5.82;118.99
65559;DHT22;52203;51.998;5.140;2023-01-23T07:07:11;5.84;118.99
65559;DHT22;52203;51.998;5.140;2023-01-23T07:09:37;5.82;118.99
65559;DHT22;52203;51.998;5.140;2023-01-23T07:12:03;5.92;118.99
65559;DHT22;52203;51.998;5.140;2023-01-23T07:14:29;5.96;118.99
65559;DHT22;52203;51.998;5.140;2023-01-23T07:16:55;5.94;118.99
65559;DHT22;52203;51.998;5.140;2023-01-23T07:19:20;5.95;118.99
65559;DHT22;52203;51.998;5.140;2023-01-23T07:21:49;6.00;118.99
65559;DHT22;52203;51.998;5.140;2023-01-23T07:24:15;6.05;118.99
65559;DHT22;52203;51.998;5.140;2023-01-23T07:26:41;6.06;118.99
65559;DHT22;52203;51.998;5.140;2023-01-23T07:29:07;6.01;118.99
65559;DHT22;52203;51.998;5.140;2023-01-23T07:31:35;6.11;118.99
65559;DHT22;52203;51.998;5.140;2023-01-23T07:34:01;6.10;118.99
65559;DHT22;52203;51.998;5.140;2023-01-23T07:36:28;6.17;118.99
65559;DHT22;52203;51.998;5.140;2023-01-23T07:38:54;6.12;118.99
65559;DHT22;52203;51.998;5.140;2023-01-23T07:41:21;6.15;118.99
65559;DHT22;52203;51.998;5.140;2023-01-23T07:43:47;6.19;118.99
65559;DHT22;52203;51.998;5.140;2023-01-23T07:46:12;6.15;118.99
65559;DHT22;52203;51.998;5.140;2023-01-23T07:48:38;6.24;118.99
65559;DHT22;52203;51.998;5.140;2023-01-23T07:51:04;6.15;118.99
65559;DHT22;52203;51.998;5.140;2023-01-23T07:53:30;6.36;118.99
65559;DHT22;52203;51.998;5.140;2023-01-23T07:55:56;6.27;118.99
65559;DHT22;52203;51.998;5.140;2023-01-23T07:58:22;6.39;118.99
65559;DHT22;52203;51.998;5.140;2023-01-23T08:00:47;6.39;118.99
65559;DHT22;52203;51.998;5.140;2023-01-23T08:03:13;6.41;118.99
65559;DHT22;52203;51.998;5.140;2023-01-23T08:05:39;6.41;118.99
65559;DHT22;52203;51.998;5.140;2023-01-23T08:08:05;6.41;118.99
65559;DHT22;52203;51.998;5.140;2023-01-23T08:10:31;6.46;118.99
65559;DHT22;52203;51.998;5.140;2023-01-23T08:12:56;6.46;118.99
65559;DHT22;52203;51.998;5.140;2023-01-23T08:15:22;6.52;118.99
65559;DHT22;52203;51.998;5.140;2023-01-23T08:17:47;6.58;118.99
65559;DHT22;52203;51.998;5.140;2023-01-23T08:20:13;6.54;118.99
65559;DHT22;52203;51.998;5.140;2023-01-23T08:22:39;6.53;118.99
65559;DHT22;52203;51.998;5.140;2023-01-23T08:25:09;6.57;118.99
65559;DHT22;52203;51.998;5.140;2023-01-23T08:27:35;6.57;118.99
65559;DHT22;52203;51.998;5.140;2023-01-23T08:30:02;6.64;118.99
65559;DHT22;52203;51.998;5.140;2023-01-23T08:32:27;6.66;118.99
65559;DHT22;52203;51.998;5.140;2023-01-23T08:34:53;6.60;118.99
65559;DHT22;52203;51.998;5.140;2023-01-23T08:37:19;6.64;118.99
65559;DHT22;52203;51.998;5.140;2023-01-23T08:39:45;6.70;118.99
65559;DHT22;52203;51.998;5.140;2023-01-23T08:42:10;6.70;118.99
65559;DHT22;52203;51.998;5.140;2023-01-23T08:44:36;6.74;118.99
65559;DHT22;52203;51.998;5.140;2023-01-23T08:47:02;6.75;118.99
65559;DHT22;52203;51.998;5.140;2023-01-23T08:49:28;6.80;118.99
65559;DHT22;52203;51.998;5.140;2023-01-23T08:51:53;6.79;118.99
65559;DHT22;52203;51.998;5.140;2023-01-23T08:54:21;6.79;118.99
65559;DHT22;52203;51.998;5.140;2023-01-23T08:56:46;6.76;118.99
65559;DHT22;52203;51.998;5.140;2023-01-23T08:59:12;6.86;118.99
65559;DHT22;52203;51.998;5.140;2023-01-23T09:01:37;6.82;118.99
65559;DHT22;52203;51.998;5.140;2023-01-23T09:04:03;6.91;118.99
65559;DHT22;52203;51.998;5.140;2023-01-23T09:06:29;6.86;118.99
65559;DHT22;52203;51.998;5.140;2023-01-23T09:08:55;6.90;118.99
65559;DHT22;52203;51.998;5.140;2023-01-23T09:11:20;6.93;118.99
65559;DHT22;52203;51.998;5.140;2023-01-23T09:13:47;6.98;118.99
65559;DHT22;52203;51.998;5.140;2023-01-23T09:16:13;7.00;118.99
65559;DHT22;52203;51.998;5.140;2023-01-23T09:18:39;6.97;118.99
65559;DHT22;52203;51.998;5.140;2023-01-23T09:21:10;6.96;118.99
65559;DHT22;52203;51.998;5.140;2023-01-23T09:23:36;7.01;118.99
65559;DHT22;52203;51.998;5.140;2023-01-23T09:26:07;7.05;118.99
65559;DHT22;52203;51.998;5.140;2023-01-23T09:28:34;7.11;118.99
65559;DHT22;52203;51.998;5.140;2023-01-23T09:31:05;7.16;118.99
65559;DHT22;52203;51.998;5.140;2023-01-23T09:33:34;7.09;118.99
65559;DHT22;52203;51.998;5.140;2023-01-23T09:36:01;7.19;118.99
65559;DHT22;52203;51.998;5.140;2023-01-23T09:38:28;7.31;118.99
65559;DHT22;52203;51.998;5.140;2023-01-23T09:40:56;7.18;118.99
65559;DHT22;52203;51.998;5.140;2023-01-23T09:45:59;7.18;118.99
65559;DHT22;52203;51.998;5.140;2023-01-23T09:48:30;7.45;118.99
65559;DHT22;52203;51.998;5.140;2023-01-23T09:51:02;7.23;118.99
65559;DHT22;52203;51.998;5.140;2023-01-23T09:53:38;7.38;118.99
65559;DHT22;52203;51.998;5.140;2023-01-23T09:56:29;7.55;118.99
65559;DHT22;52203;51.998;5.140;2023-01-23T09:58:58;7.58;118.99
65559;DHT22;52203;51.998;5.140;2023-01-23T10:01:27;7.56;118.99
65559;DHT22;52203;51.998;5.140;2023-01-23T10:03:55;7.49;118.99
65559;DHT22;52203;51.998;5.140;2023-01-23T10:06:28;7.52;118.99
65559;DHT22;52203;51.998;5.140;2023-01-23T10:12:08;7.52;118.99
65559;DHT22;52203;51.998;5.140;2023-01-23T10:17:28;7.49;118.99
65559;DHT22;52203;51.998;5.140;2023-01-23T10:20:13;7.70;118.99
65559;DHT22;52203;51.998;5.140;2023-01-23T10:22:49;7.91;118.99
65559;DHT22;52203;51.998;5.140;2023-01-23T10:25:20;7.81;118.99
65559;DHT22;52203;51.998;5.140;2023-01-23T10:27:49;7.82;118.99
65559;DHT22;52203;51.998;5.140;2023-01-23T10:30:21;7.86;118.99
65559;DHT22;52203;51.998;5.140;2023-01-23T10:38:22;7.87;118.99
65559;DHT22;52203;51.998;5.140;2023-01-23T10:40:50;7.90;118.99
65559;DHT22;52203;51.998;5.140;2023-01-23T10:43:34;8.05;118.99
65559;DHT22;52203;51.998;5.140;2023-01-23T10:46:03;8.12;118.99
65559;DHT22;52203;51.998;5.140;2023-01-23T10:50:58;7.78;118.99
65559;DHT22;52203;51.998;5.140;2023-01-23T10:53:25;7.58;118.99
65559;DHT22;52203;51.998;5.140;2023-01-23T10:55:57;7.60;118.99
65559;DHT22;52203;51.998;5.140;2023-01-23T10:58:36;7.62;118.99
65559;DHT22;52203;51.998;5.140;2023-01-23T11:01:03;7.63;118.99
65559;DHT22;52203;51.998;5.140;2023-01-23T11:03:30;7.75;118.99
65559;DHT22;52203;51.998;5.140;2023-01-23T11:06:01;7.78;118.99
65559;DHT22;52203;51.998;5.140;2023-01-23T11:08:32;7.87;118.99
65559;DHT22;52203;51.998;5.140;2023-01-23T11:13:43;7.76;118.99
65559;DHT22;52203;51.998;5.140;2023-01-23T11:16:16;7.78;118.99
65559;DHT22;52203;51.998;5.140;2023-01-23T11:18:53;7.75;118.99
65559;DHT22;52203;51.998;5.140;2023-01-23T11:21:27;7.74;118.99
65559;DHT22;52203;51.998;5.140;2023-01-23T11:26:42;7.73;118.99
65559;DHT22;52203;51.998;5.140;2023-01-23T11:29:42;7.71;118.99
65559;DHT22;52203;51.998;5.140;2023-01-23T11:32:12;7.63;118.99
65559;DHT22;52203;51.998;5.140;2023-01-23T11:34:49;7.67;118.99
65559;DHT22;52203;51.998;5.140;2023-01-23T11:37:24;7.54;118.99
65559;DHT22;52203;51.998;5.140;2023-01-23T11:40:02;7.63;118.99
65559;DHT22;52203;51.998;5.140;2023-01-23T11:42:29;7.58;118.99
65559;DHT22;52203;51.998;5.140;2023-01-23T11:44:58;7.56;118.99
65559;DHT22;52203;51.998;5.140;2023-01-23T11:47:40;7.57;118.99
65559;DHT22;52203;51.998;5.140;2023-01-23T11:52:55;7.52;118.99
65559;DHT22;52203;51.998;5.140;2023-01-23T12:11:53;7.43;118.99
65559;DHT22;52203;51.998;5.140;2023-01-23T12:14:38;7.30;118.99
65559;DHT22;52203;51.998;5.140;2023-01-23T12:17:29;7.35;118.99
65559;DHT22;52203;51.998;5.140;2023-01-23T12:28:04;7.29;118.99
65559;DHT22;52203;51.998;5.140;2023-01-23T12:35:57;7.14;118.99
65559;DHT22;52203;51.998;5.140;2023-01-23T12:41:18;7.13;118.99
65559;DHT22;52203;51.998;5.140;2023-01-23T12:43:57;7.13;118.99
65559;DHT22;52203;51.998;5.140;2023-01-23T12:46:33;7.15;118.99
65559;DHT22;52203;51.998;5.140;2023-01-23T12:51:59;6.82;118.99
65559;DHT22;52203;51.998;5.140;2023-01-23T12:54:37;6.93;118.99
65559;DHT22;52203;51.998;5.140;2023-01-23T12:57:04;7.01;118.99
65559;DHT22;52203;51.998;5.140;2023-01-23T12:59:55;6.91;118.99
65559;DHT22;52203;51.998;5.140;2023-01-23T13:02:47;6.73;118.99
65559;DHT22;52203;51.998;5.140;2023-01-23T13:08:35;6.64;118.99
65559;DHT22;52203;51.998;5.140;2023-01-23T13:14:23;6.63;118.99
65559;DHT22;52203;51.998;5.140;2023-01-23T13:16:51;6.64;118.99
65559;DHT22;52203;51.998;5.140;2023-01-23T13:19:29;6.65;118.99
65559;DHT22;52203;51.998;5.140;2023-01-23T13:22:23;6.61;118.99
65559;DHT22;52203;51.998;5.140;2023-01-23T13:24:53;6.57;118.99
65559;DHT22;52203;51.998;5.140;2023-01-23T13:27:42;6.64;118.99
65559;DHT22;52203;51.998;5.140;2023-01-23T13:32:54;6.50;118.99
65559;DHT22;52203;51.998;5.140;2023-01-23T13:52:38;6.28;118.99
65559;DHT22;52203;51.998;5.140;2023-01-23T13:55:32;6.24;118.99
65559;DHT22;52203;51.998;5.140;2023-01-23T13:58:20;6.14;118.99
65559;DHT22;52203;51.998;5.140;2023-01-23T14:01:13;6.31;118.99
65559;DHT22;52203;51.998;5.140;2023-01-23T14:04:27;6.21;118.99
65559;DHT22;52203;51.998;5.140;2023-01-23T14:07:25;6.42;118.99
65559;DHT22;52203;51.998;5.140;2023-01-23T14:10:28;6.46;118.99
65559;DHT22;52203;51.998;5.140;2023-01-23T14:13:19;6.55;118.99
65559;DHT22;52203;51.998;5.140;2023-01-23T14:15:51;6.64;118.99
65559;DHT22;52203;51.998;5.140;2023-01-23T14:18:45;6.71;118.99
65559;DHT22;52203;51.998;5.140;2023-01-23T14:21:26;6.69;118.99
65559;DHT22;52203;51.998;5.140;2023-01-23T14:23:55;6.71;118.99
65559;DHT22;52203;51.998;5.140;2023-01-23T14:26:27;6.79;118.99
65559;DHT22;52203;51.998;5.140;2023-01-23T14:29:16;6.79;118.99
65559;DHT22;52203;51.998;5.140;2023-01-23T14:31:43;6.85;118.99
65559;DHT22;52203;51.998;5.140;2023-01-23T14:34:18;6.90;118.99
65559;DHT22;52203;51.998;5.140;2023-01-23T14:36:51;6.88;118.99
65559;DHT22;52203;51.998;5.140;2023-01-23T14:39:19;6.96;118.99
65559;DHT22;52203;51.998;5.140;2023-01-23T14:41:46;6.96;118.99
65559;DHT22;52203;51.998;5.140;2023-01-23T14:44:19;7.02;118.99
65559;DHT22;52203;51.998;5.140;2023-01-23T14:46:51;7.00;118.99
65559;DHT22;52203;51.998;5.140;2023-01-23T14:49:26;7.00;118.99
65559;DHT22;52203;51.998;5.140;2023-01-23T14:52:03;7.03;118.99
65559;DHT22;52203;51.998;5.140;2023-01-23T14:54:30;7.05;118.99
65559;DHT22;52203;51.998;5.140;2023-01-23T14:56:57;6.99;118.99
65559;DHT22;52203;51.998;5.140;2023-01-23T14:59:37;7.01;118.99
65559;DHT22;52203;51.998;5.140;2023-01-23T15:02:24;6.99;118.99
65559;DHT22;52203;51.998;5.140;2023-01-23T15:10:42;6.57;118.99
65559;DHT22;52203;51.998;5.140;2023-01-23T15:13:19;6.66;118.99
65559;DHT22;52203;51.998;5.140;2023-01-23T15:16:00;6.59;118.99
65559;DHT22;52203;51.998;5.140;2023-01-23T15:18:28;6.56;118.99
65559;DHT22;52203;51.998;5.140;2023-01-23T15:20:59;6.52;118.99
65559;DHT22;52203;51.998;5.140;2023-01-23T15:28:50;6.53;118.99
65559;DHT22;52203;51.998;5.140;2023-01-23T15:31:30;6.39;118.99
65559;DHT22;52203;51.998;5.140;2023-01-23T15:36:36;6.45;118.99
65559;DHT22;52203;51.998;5.140;2023-01-23T15:39:02;6.37;118.99
65559;DHT22;52203;51.998;5.140;2023-01-23T15:41:44;6.28;118.99
65559;DHT22;52203;51.998;5.140;2023-01-23T15:44:18;6.20;118.99
65559;DHT22;52203;51.998;5.140;2023-01-23T15:46:43;6.37;118.99
65559;DHT22;52203;51.998;5.140;2023-01-23T15:49:09;6.43;118.99
65559;DHT22;52203;51.998;5.140;2023-01-23T15:51:35;6.45;118.99
65559;DHT22;52203;51.998;5.140;2023-01-23T15:54:02;6.43;118.99
65559;DHT22;52203;51.998;5.140;2023-01-23T15:56:30;6.40;118.99
65559;DHT22;52203;51.998;5.140;2023-01-23T15:58:56;6.43;118.99
65559;DHT22;52203;51.998;5.140;2023-01-23T16:01:23;6.35;118.99
65559;DHT22;52203;51.998;5.140;2023-01-23T16:03:49;6.43;118.99
65559;DHT22;52203;51.998;5.140;2023-01-23T16:06:17;6.37;118.99
65559;DHT22;52203;51.998;5.140;2023-01-23T16:08:43;6.40;118.99
65559;DHT22;52203;51.998;5.140;2023-01-23T16:11:09;6.31;118.99
65559;DHT22;52203;51.998;5.140;2023-01-23T16:13:35;6.35;118.99
65559;DHT22;52203;51.998;5.140;2023-01-23T16:16:01;6.38;118.99
65559;DHT22;52203;51.998;5.140;2023-01-23T16:18:26;6.38;118.99
65559;DHT22;52203;51.998;5.140;2023-01-23T16:20:52;6.33;118.99
65559;DHT22;52203;51.998;5.140;2023-01-23T16:23:22;6.34;118.99
65559;DHT22;52203;51.998;5.140;2023-01-23T16:25:49;6.26;118.99
65559;DHT22;52203;51.998;5.140;2023-01-23T16:28:20;6.25;118.99
65559;DHT22;52203;51.998;5.140;2023-01-23T16:30:47;6.34;118.99
65559;DHT22;52203;51.998;5.140;2023-01-23T16:33:14;6.31;118.99
65559;DHT22;52203;51.998;5.140;2023-01-23T16:35:40;6.33;118.99
65559;DHT22;52203;51.998;5.140;2023-01-23T16:38:06;6.29;118.99
65559;DHT22;52203;51.998;5.140;2023-01-23T16:40:32;6.34;118.99
65559;DHT22;52203;51.998;5.140;2023-01-23T16:42:59;6.26;118.99
65559;DHT22;52203;51.998;5.140;2023-01-23T16:45:28;6.27;118.99
65559;DHT22;52203;51.998;5.140;2023-01-23T16:47:55;6.27;118.99
65559;DHT22;52203;51.998;5.140;2023-01-23T16:50:34;6.27;118.99
65559;DHT22;52203;51.998;5.140;2023-01-23T16:53:07;6.31;118.99
65559;DHT22;52203;51.998;5.140;2023-01-23T16:55:37;6.39;118.99
65559;DHT22;52203;51.998;5.140;2023-01-23T16:58:04;6.38;118.99
65559;DHT22;52203;51.998;5.140;2023-01-23T17:00:31;6.39;118.99
65559;DHT22;52203;51.998;5.140;2023-01-23T17:03:00;6.37;118.99
65559;DHT22;52203;51.998;5.140;2023-01-23T17:05:26;6.41;118.99
65559;DHT22;52203;51.998;5.140;2023-01-23T17:07:51;6.58;118.99
65559;DHT22;52203;51.998;5.140;2023-01-23T17:10:19;6.55;118.99
65559;DHT22;52203;51.998;5.140;2023-01-23T17:12:53;6.49;118.99
65559;DHT22;52203;51.998;5.140;2023-01-23T17:15:28;6.51;118.99
65559;DHT22;52203;51.998;5.140;2023-01-23T17:17:59;6.43;118.99
65559;DHT22;52203;51.998;5.140;2023-01-23T17:20:26;6.42;118.99
65559;DHT22;52203;51.998;5.140;2023-01-23T17:22:55;6.46;118.99
65559;DHT22;52203;51.998;5.140;2023-01-23T17:25:24;6.41;118.99
65559;DHT22;52203;51.998;5.140;2023-01-23T17:27:50;6.46;118.99
65559;DHT22;52203;51.998;5.140;2023-01-23T17:30:21;6.48;118.99
65559;DHT22;52203;51.998;5.140;2023-01-23T17:32:49;6.48;118.99
65559;DHT22;52203;51.998;5.140;2023-01-23T17:35:20;6.48;118.99